DAL1202 KSAN-KSEA
Flight info
| Callsign | DAL1202 |
|---|---|
| Flight time | 2h 32m |
| Altitude | 32000 |
| Route | PADRZ2 EHF SHIMR LKV HAWKZ8 |
| Aircraft | MD88/M-SDFGIRWY/S |
Departure
| Time | 2026-05-06 02:57 |
|---|---|
| Airport | San Diego International Airport (KSAN) |
Arrival
| Time | 2026-05-06 05:29 |
|---|---|
| Airport | Seattle–Tacoma International Airport (KSEA) |
| Time | Latitude | Longitude | Altitude | Speed | Heading |
|---|---|---|---|---|---|
| 2026-05-06 02:27 | 32.73341 | -117.20337 | 25 ft | 0 kts | 266° |
| 2026-05-06 02:45 | 32.73340 | -117.20327 | 24 ft | 4 kts | 281° |
| 2026-05-06 02:46 | 32.73337 | -117.20302 | 25 ft | 4 kts | 281° |
| 2026-05-06 02:46 | 32.73329 | -117.20273 | 29 ft | 4 kts | 306° |
| 2026-05-06 02:46 | 32.73314 | -117.20260 | 25 ft | 1 kts | 345° |
| 2026-05-06 02:46 | 32.73314 | -117.20259 | 25 ft | 0 kts | 345° |
| 2026-05-06 02:49 | 32.73345 | -117.20269 | 25 ft | 9 kts | 346° |
| 2026-05-06 02:50 | 32.73398 | -117.20272 | 24 ft | 0 kts | 8° |
| 2026-05-06 02:50 | 32.73402 | -117.20272 | 24 ft | 1 kts | 8° |
| 2026-05-06 02:50 | 32.73409 | -117.20270 | 24 ft | 1 kts | 11° |
| 2026-05-06 02:50 | 32.73411 | -117.20270 | 24 ft | 1 kts | 11° |
| 2026-05-06 02:51 | 32.73447 | -117.20259 | 24 ft | 10 kts | 14° |
| 2026-05-06 02:51 | 32.73527 | -117.20229 | 25 ft | 10 kts | 36° |
| 2026-05-06 02:51 | 32.73541 | -117.20157 | 25 ft | 10 kts | 104° |
| 2026-05-06 02:51 | 32.73513 | -117.20040 | 26 ft | 18 kts | 106° |
| 2026-05-06 02:52 | 32.73478 | -117.19894 | 25 ft | 19 kts | 106° |
| 2026-05-06 02:52 | 32.73439 | -117.19734 | 25 ft | 21 kts | 106° |
| 2026-05-06 02:52 | 32.73397 | -117.19558 | 28 ft | 22 kts | 105° |
| 2026-05-06 02:52 | 32.73354 | -117.19383 | 27 ft | 22 kts | 106° |
| 2026-05-06 02:53 | 32.73312 | -117.19207 | 27 ft | 22 kts | 106° |
| 2026-05-06 02:53 | 32.73269 | -117.19034 | 28 ft | 22 kts | 106° |
| 2026-05-06 02:53 | 32.73225 | -117.18851 | 26 ft | 24 kts | 106° |
| 2026-05-06 02:53 | 32.73180 | -117.18665 | 23 ft | 23 kts | 106° |
| 2026-05-06 02:54 | 32.73136 | -117.18480 | 24 ft | 23 kts | 106° |
| 2026-05-06 02:54 | 32.73091 | -117.18298 | 24 ft | 23 kts | 106° |
| 2026-05-06 02:54 | 32.73047 | -117.18117 | 22 ft | 24 kts | 106° |
| 2026-05-06 02:54 | 32.72995 | -117.17901 | 24 ft | 30 kts | 106° |
| 2026-05-06 02:55 | 32.72949 | -117.17730 | 23 ft | 9 kts | 102° |
| 2026-05-06 02:55 | 32.72952 | -117.17691 | 22 ft | 0 kts | 73° |
| 2026-05-06 02:55 | 32.72961 | -117.17656 | 23 ft | 9 kts | 71° |
| 2026-05-06 02:56 | 32.73012 | -117.17607 | 23 ft | 11 kts | 347° |
| 2026-05-06 02:56 | 32.73047 | -117.17688 | 22 ft | 23 kts | 286° |
| 2026-05-06 02:56 | 32.73141 | -117.18069 | 21 ft | 76 kts | 286° |
| 2026-05-06 02:56 | 32.73340 | -117.18897 | 27 ft | 131 kts | 286° |
| 2026-05-06 02:57 | 32.73639 | -117.20107 | 117 ft | 167 kts | 287° |
| 2026-05-06 02:57 | 32.73933 | -117.21270 | 822 ft | 164 kts | 289° |
| 2026-05-06 02:57 | 32.74450 | -117.22529 | 1353 ft | 177 kts | 303° |
| 2026-05-06 02:57 | 32.75206 | -117.23777 | 1740 ft | 197 kts | 305° |
| 2026-05-06 02:58 | 32.76041 | -117.25175 | 2145 ft | 217 kts | 304° |
| 2026-05-06 02:58 | 32.76939 | -117.26724 | 2422 ft | 245 kts | 304° |
| 2026-05-06 02:58 | 32.77981 | -117.28514 | 2551 ft | 272 kts | 304° |
| 2026-05-06 02:58 | 32.79008 | -117.30265 | 3914 ft | 247 kts | 304° |
| 2026-05-06 02:59 | 32.79997 | -117.31955 | 4756 ft | 252 kts | 306° |
| 2026-05-06 02:59 | 32.81038 | -117.33635 | 5519 ft | 254 kts | 307° |
| 2026-05-06 02:59 | 32.82129 | -117.35328 | 6162 ft | 263 kts | 308° |
| 2026-05-06 02:59 | 32.83247 | -117.37041 | 6854 ft | 265 kts | 308° |
| 2026-05-06 03:00 | 32.84399 | -117.38797 | 7431 ft | 270 kts | 308° |
| 2026-05-06 03:00 | 32.85550 | -117.40557 | 8181 ft | 270 kts | 308° |
| 2026-05-06 03:00 | 32.86696 | -117.42314 | 8784 ft | 274 kts | 308° |
| 2026-05-06 03:00 | 32.87867 | -117.44112 | 9444 ft | 275 kts | 308° |
| 2026-05-06 03:01 | 32.89051 | -117.45933 | 9990 ft | 281 kts | 309° |
| 2026-05-06 03:01 | 32.90288 | -117.47841 | 10274 ft | 297 kts | 308° |
| 2026-05-06 03:01 | 32.91569 | -117.49825 | 10435 ft | 315 kts | 309° |
| 2026-05-06 03:01 | 32.92934 | -117.51944 | 10611 ft | 331 kts | 309° |
| 2026-05-06 03:02 | 32.94369 | -117.54170 | 10786 ft | 346 kts | 308° |
| 2026-05-06 03:02 | 32.95856 | -117.56484 | 11117 ft | 356 kts | 308° |
| 2026-05-06 03:02 | 32.97362 | -117.58839 | 11700 ft | 358 kts | 308° |
| 2026-05-06 03:02 | 32.98879 | -117.61212 | 12285 ft | 361 kts | 308° |
| 2026-05-06 03:03 | 33.00400 | -117.63597 | 12896 ft | 363 kts | 308° |
| 2026-05-06 03:03 | 33.01927 | -117.65998 | 13503 ft | 365 kts | 308° |
| 2026-05-06 03:03 | 33.03481 | -117.68430 | 13953 ft | 372 kts | 308° |
| 2026-05-06 03:03 | 33.05054 | -117.70885 | 14432 ft | 376 kts | 308° |
| 2026-05-06 03:04 | 33.06704 | -117.73331 | 14722 ft | 380 kts | 315° |
| 2026-05-06 03:04 | 33.08636 | -117.75482 | 14858 ft | 379 kts | 320° |
| 2026-05-06 03:04 | 33.10645 | -117.77484 | 14923 ft | 376 kts | 321° |
| 2026-05-06 03:04 | 33.12681 | -117.79470 | 14960 ft | 378 kts | 321° |
| 2026-05-06 03:05 | 33.14701 | -117.81451 | 14963 ft | 374 kts | 321° |
| 2026-05-06 03:05 | 33.16704 | -117.83430 | 14982 ft | 375 kts | 321° |
| 2026-05-06 03:05 | 33.18710 | -117.85430 | 14979 ft | 376 kts | 321° |
| 2026-05-06 03:05 | 33.20717 | -117.87434 | 14988 ft | 375 kts | 321° |
| 2026-05-06 03:06 | 33.22730 | -117.89410 | 14996 ft | 376 kts | 321° |
| 2026-05-06 03:06 | 33.24756 | -117.91386 | 14992 ft | 377 kts | 322° |
| 2026-05-06 03:06 | 33.26784 | -117.93363 | 14989 ft | 375 kts | 322° |
| 2026-05-06 03:06 | 33.28803 | -117.95331 | 14979 ft | 376 kts | 321° |
| 2026-05-06 03:07 | 33.30842 | -117.97319 | 15054 ft | 382 kts | 322° |
| 2026-05-06 03:07 | 33.32900 | -117.99336 | 15613 ft | 383 kts | 321° |
| 2026-05-06 03:07 | 33.34958 | -118.01350 | 16204 ft | 384 kts | 322° |
| 2026-05-06 03:07 | 33.37034 | -118.03386 | 16731 ft | 386 kts | 322° |
| 2026-05-06 03:08 | 33.39115 | -118.05431 | 17247 ft | 389 kts | 322° |
| 2026-05-06 03:08 | 33.41225 | -118.07502 | 17644 ft | 395 kts | 322° |
| 2026-05-06 03:08 | 33.43359 | -118.09601 | 18128 ft | 398 kts | 322° |
| 2026-05-06 03:08 | 33.45504 | -118.11710 | 18603 ft | 401 kts | 322° |
| 2026-05-06 03:09 | 33.47673 | -118.13834 | 19039 ft | 404 kts | 322° |
| 2026-05-06 03:09 | 33.49849 | -118.15975 | 19556 ft | 405 kts | 322° |
| 2026-05-06 03:09 | 33.52031 | -118.18119 | 20044 ft | 407 kts | 322° |
| 2026-05-06 03:09 | 33.54236 | -118.20283 | 20482 ft | 410 kts | 322° |
| 2026-05-06 03:10 | 33.56442 | -118.22458 | 20973 ft | 412 kts | 322° |
| 2026-05-06 03:10 | 33.58803 | -118.24412 | 21314 ft | 415 kts | 334° |
| 2026-05-06 03:10 | 33.61409 | -118.25933 | 21660 ft | 418 kts | 338° |
| 2026-05-06 03:10 | 33.64076 | -118.27339 | 22139 ft | 420 kts | 339° |
| 2026-05-06 03:11 | 33.66759 | -118.28738 | 22624 ft | 422 kts | 339° |
| 2026-05-06 03:11 | 33.69459 | -118.30155 | 23048 ft | 425 kts | 338° |
| 2026-05-06 03:11 | 33.72172 | -118.31601 | 23464 ft | 428 kts | 338° |
| 2026-05-06 03:11 | 33.74896 | -118.33078 | 23870 ft | 430 kts | 338° |
| 2026-05-06 03:12 | 33.77630 | -118.34543 | 24270 ft | 432 kts | 339° |
| 2026-05-06 03:12 | 33.80398 | -118.35969 | 24630 ft | 434 kts | 340° |
| 2026-05-06 03:12 | 33.83190 | -118.37380 | 24989 ft | 436 kts | 340° |
| 2026-05-06 03:12 | 33.85999 | -118.38785 | 25352 ft | 438 kts | 340° |
| 2026-05-06 03:13 | 33.88821 | -118.40194 | 25694 ft | 440 kts | 340° |
| 2026-05-06 03:13 | 33.91660 | -118.41617 | 26032 ft | 443 kts | 341° |
| 2026-05-06 03:13 | 33.94508 | -118.43050 | 26374 ft | 445 kts | 340° |
| 2026-05-06 03:13 | 33.97360 | -118.44493 | 26811 ft | 444 kts | 340° |
| 2026-05-06 03:14 | 34.00220 | -118.45863 | 27301 ft | 437 kts | 349° |
| 2026-05-06 03:14 | 34.03153 | -118.46593 | 27885 ft | 426 kts | 357° |
| 2026-05-06 03:14 | 34.06081 | -118.47040 | 28413 ft | 422 kts | 359° |
| 2026-05-06 03:14 | 34.08989 | -118.47424 | 28861 ft | 421 kts | 360° |
| 2026-05-06 03:15 | 34.11896 | -118.47803 | 29270 ft | 419 kts | 0° |
| 2026-05-06 03:15 | 34.14792 | -118.48194 | 29710 ft | 418 kts | 360° |
| 2026-05-06 03:15 | 34.17673 | -118.48604 | 30182 ft | 415 kts | 360° |
| 2026-05-06 03:15 | 34.20496 | -118.49022 | 30509 ft | 414 kts | 359° |
| 2026-05-06 03:16 | 34.23342 | -118.49465 | 30915 ft | 410 kts | 359° |
| 2026-05-06 03:16 | 34.26153 | -118.49906 | 31393 ft | 405 kts | 359° |
| 2026-05-06 03:16 | 34.28937 | -118.50335 | 31731 ft | 403 kts | 359° |
| 2026-05-06 03:16 | 34.31730 | -118.50762 | 31909 ft | 406 kts | 358° |
| 2026-05-06 03:17 | 34.34541 | -118.51195 | 31986 ft | 411 kts | 358° |
| 2026-05-06 03:17 | 34.40261 | -118.52090 | 32030 ft | 416 kts | 358° |
| 2026-05-06 03:18 | 34.45966 | -118.53010 | 32007 ft | 409 kts | 359° |
| 2026-05-06 03:18 | 34.51552 | -118.53893 | 32020 ft | 403 kts | 359° |
| 2026-05-06 03:19 | 34.57125 | -118.54749 | 32032 ft | 405 kts | 359° |
| 2026-05-06 03:19 | 34.62741 | -118.55605 | 32029 ft | 408 kts | 359° |
| 2026-05-06 03:20 | 34.71199 | -118.56934 | 32032 ft | 407 kts | 360° |
| 2026-05-06 03:20 | 34.76809 | -118.57810 | 32037 ft | 405 kts | 360° |
| 2026-05-06 03:21 | 34.82401 | -118.58680 | 32041 ft | 405 kts | 360° |
| 2026-05-06 03:21 | 34.88001 | -118.59552 | 32058 ft | 406 kts | 360° |
| 2026-05-06 03:22 | 34.93588 | -118.60424 | 32071 ft | 407 kts | 360° |
| 2026-05-06 03:22 | 34.99208 | -118.61321 | 32077 ft | 408 kts | 356° |
| 2026-05-06 03:23 | 35.01949 | -118.62409 | 32094 ft | 426 kts | 339° |
| 2026-05-06 03:23 | 35.04431 | -118.64493 | 32078 ft | 438 kts | 328° |
| 2026-05-06 03:23 | 35.09047 | -118.69381 | 32060 ft | 439 kts | 327° |
| 2026-05-06 03:24 | 35.13645 | -118.74270 | 32071 ft | 438 kts | 328° |
| 2026-05-06 03:24 | 35.18314 | -118.79066 | 32059 ft | 439 kts | 329° |
| 2026-05-06 03:25 | 35.23026 | -118.83826 | 32059 ft | 439 kts | 329° |
| 2026-05-06 03:25 | 35.27729 | -118.88584 | 32044 ft | 438 kts | 329° |
| 2026-05-06 03:26 | 35.32412 | -118.93340 | 32050 ft | 437 kts | 329° |
| 2026-05-06 03:26 | 35.37087 | -118.98105 | 32046 ft | 437 kts | 329° |
| 2026-05-06 03:27 | 35.41744 | -119.02872 | 32061 ft | 436 kts | 329° |
| 2026-05-06 03:27 | 35.46363 | -119.07598 | 32033 ft | 435 kts | 329° |
| 2026-05-06 03:28 | 35.48790 | -119.09738 | 32044 ft | 421 kts | 343° |
| 2026-05-06 03:28 | 35.51463 | -119.11015 | 32050 ft | 410 kts | 352° |
| 2026-05-06 03:28 | 35.56953 | -119.12866 | 32046 ft | 410 kts | 353° |
| 2026-05-06 03:29 | 35.62456 | -119.14654 | 32031 ft | 408 kts | 353° |
| 2026-05-06 03:29 | 35.67039 | -119.16200 | 32049 ft | 407 kts | 352° |
| 2026-05-06 03:30 | 35.72485 | -119.18117 | 32052 ft | 408 kts | 352° |
| 2026-05-06 03:30 | 35.77953 | -119.20066 | 32054 ft | 409 kts | 352° |
| 2026-05-06 03:31 | 35.83421 | -119.22012 | 32051 ft | 410 kts | 352° |
| 2026-05-06 03:31 | 35.88873 | -119.23674 | 32058 ft | 400 kts | 0° |
| 2026-05-06 03:32 | 35.94379 | -119.24377 | 32059 ft | 397 kts | 1° |
| 2026-05-06 03:32 | 35.99882 | -119.25156 | 32044 ft | 400 kts | 360° |
| 2026-05-06 03:33 | 36.05409 | -119.26092 | 32043 ft | 402 kts | 359° |
| 2026-05-06 03:33 | 36.10949 | -119.27107 | 32054 ft | 402 kts | 358° |
| 2026-05-06 03:34 | 36.16471 | -119.28126 | 32062 ft | 400 kts | 359° |
| 2026-05-06 03:34 | 36.21971 | -119.29122 | 32063 ft | 399 kts | 359° |
| 2026-05-06 03:35 | 36.27480 | -119.30105 | 32062 ft | 400 kts | 359° |
| 2026-05-06 03:35 | 36.33001 | -119.31096 | 32063 ft | 401 kts | 358° |
| 2026-05-06 03:36 | 36.38525 | -119.32091 | 32062 ft | 402 kts | 358° |
| 2026-05-06 03:36 | 36.44023 | -119.33079 | 32037 ft | 402 kts | 358° |
| 2026-05-06 03:37 | 36.49542 | -119.34066 | 32052 ft | 400 kts | 358° |
| 2026-05-06 03:37 | 36.55039 | -119.35057 | 32050 ft | 399 kts | 358° |
| 2026-05-06 03:38 | 36.60541 | -119.36049 | 32044 ft | 400 kts | 358° |
| 2026-05-06 03:38 | 36.66065 | -119.37040 | 32042 ft | 401 kts | 358° |
| 2026-05-06 03:39 | 36.71597 | -119.38038 | 32042 ft | 401 kts | 358° |
| 2026-05-06 03:39 | 36.77115 | -119.39042 | 32048 ft | 400 kts | 358° |
| 2026-05-06 03:40 | 36.82611 | -119.40039 | 32047 ft | 399 kts | 358° |
| 2026-05-06 03:40 | 36.88114 | -119.41030 | 32045 ft | 400 kts | 358° |
| 2026-05-06 03:41 | 36.93633 | -119.42027 | 32043 ft | 401 kts | 358° |
| 2026-05-06 03:41 | 36.99166 | -119.43030 | 32044 ft | 402 kts | 358° |
| 2026-05-06 03:42 | 37.04684 | -119.44032 | 32022 ft | 401 kts | 358° |
| 2026-05-06 03:42 | 37.10183 | -119.45031 | 32035 ft | 398 kts | 358° |
| 2026-05-06 03:43 | 37.15686 | -119.46038 | 32048 ft | 402 kts | 357° |
| 2026-05-06 03:43 | 37.21230 | -119.47044 | 32043 ft | 403 kts | 358° |
| 2026-05-06 03:44 | 37.26763 | -119.48056 | 32020 ft | 401 kts | 357° |
| 2026-05-06 03:44 | 37.32273 | -119.49071 | 32059 ft | 401 kts | 358° |
| 2026-05-06 03:45 | 37.37817 | -119.50072 | 32049 ft | 404 kts | 357° |
| 2026-05-06 03:45 | 37.43375 | -119.51092 | 32048 ft | 403 kts | 357° |
| 2026-05-06 03:46 | 37.48913 | -119.52110 | 32041 ft | 401 kts | 357° |
| 2026-05-06 03:46 | 37.54437 | -119.53125 | 32044 ft | 402 kts | 357° |
| 2026-05-06 03:47 | 37.59969 | -119.54151 | 32041 ft | 401 kts | 357° |
| 2026-05-06 03:47 | 37.65498 | -119.55175 | 32031 ft | 402 kts | 357° |
| 2026-05-06 03:48 | 37.71037 | -119.56189 | 32034 ft | 403 kts | 357° |
| 2026-05-06 03:48 | 37.76590 | -119.57211 | 32023 ft | 403 kts | 356° |
| 2026-05-06 03:49 | 37.82130 | -119.58244 | 32024 ft | 401 kts | 357° |
| 2026-05-06 03:49 | 37.87647 | -119.59261 | 32026 ft | 401 kts | 356° |
| 2026-05-06 03:50 | 37.93172 | -119.60283 | 32038 ft | 402 kts | 356° |
| 2026-05-06 03:50 | 37.98715 | -119.61321 | 32036 ft | 403 kts | 356° |
| 2026-05-06 03:51 | 38.04259 | -119.62357 | 32024 ft | 402 kts | 356° |
| 2026-05-06 03:51 | 38.09778 | -119.63382 | 32023 ft | 400 kts | 356° |
| 2026-05-06 03:52 | 38.15287 | -119.64412 | 32027 ft | 401 kts | 356° |
| 2026-05-06 03:52 | 38.20814 | -119.65446 | 32022 ft | 402 kts | 356° |
| 2026-05-06 03:53 | 38.26311 | -119.66471 | 32014 ft | 403 kts | 356° |
| 2026-05-06 03:53 | 38.31868 | -119.67510 | 32026 ft | 403 kts | 356° |
| 2026-05-06 03:54 | 38.37394 | -119.68556 | 32014 ft | 400 kts | 356° |
| 2026-05-06 03:54 | 38.42903 | -119.69593 | 32008 ft | 401 kts | 355° |
| 2026-05-06 03:55 | 38.48427 | -119.70634 | 31998 ft | 402 kts | 356° |
| 2026-05-06 03:55 | 38.53950 | -119.71676 | 32014 ft | 401 kts | 356° |
| 2026-05-06 03:56 | 38.59471 | -119.72717 | 32000 ft | 400 kts | 356° |
| 2026-05-06 03:56 | 38.64981 | -119.73760 | 31990 ft | 400 kts | 355° |
| 2026-05-06 03:57 | 38.70491 | -119.74800 | 32015 ft | 401 kts | 355° |
| 2026-05-06 03:57 | 38.76013 | -119.75850 | 32035 ft | 402 kts | 355° |
| 2026-05-06 03:58 | 38.81542 | -119.76903 | 31995 ft | 402 kts | 355° |
| 2026-05-06 03:58 | 38.87085 | -119.77961 | 32002 ft | 402 kts | 355° |
| 2026-05-06 03:59 | 38.92610 | -119.79014 | 32008 ft | 400 kts | 355° |
| 2026-05-06 03:59 | 38.98112 | -119.80063 | 32013 ft | 400 kts | 356° |
| 2026-05-06 04:00 | 39.03630 | -119.81113 | 32005 ft | 401 kts | 355° |
| 2026-05-06 04:00 | 39.09150 | -119.82169 | 31999 ft | 401 kts | 355° |
| 2026-05-06 04:01 | 39.14673 | -119.83229 | 32022 ft | 401 kts | 355° |
| 2026-05-06 04:01 | 39.20200 | -119.84290 | 32027 ft | 402 kts | 355° |
| 2026-05-06 04:02 | 39.25746 | -119.85356 | 32026 ft | 404 kts | 355° |
| 2026-05-06 04:02 | 39.31305 | -119.86433 | 32005 ft | 403 kts | 355° |
| 2026-05-06 04:03 | 39.36842 | -119.87504 | 31986 ft | 401 kts | 355° |
| 2026-05-06 04:03 | 39.42369 | -119.88573 | 31987 ft | 403 kts | 355° |
| 2026-05-06 04:04 | 39.47937 | -119.89647 | 31995 ft | 406 kts | 355° |
| 2026-05-06 04:04 | 39.53518 | -119.90730 | 31987 ft | 405 kts | 355° |
| 2026-05-06 04:05 | 39.59081 | -119.91812 | 32003 ft | 404 kts | 355° |
| 2026-05-06 04:05 | 39.64662 | -119.92898 | 32008 ft | 406 kts | 355° |
| 2026-05-06 04:06 | 39.70260 | -119.93989 | 32007 ft | 407 kts | 355° |
| 2026-05-06 04:06 | 39.75864 | -119.95084 | 32001 ft | 407 kts | 355° |
| 2026-05-06 04:07 | 39.81465 | -119.96178 | 31981 ft | 407 kts | 355° |
| 2026-05-06 04:07 | 39.87058 | -119.97270 | 31952 ft | 405 kts | 355° |
| 2026-05-06 04:08 | 39.92564 | -119.98350 | 31921 ft | 404 kts | 355° |
| 2026-05-06 04:08 | 39.98100 | -119.99435 | 31890 ft | 404 kts | 355° |
| 2026-05-06 04:09 | 40.03650 | -120.00527 | 31872 ft | 403 kts | 355° |
| 2026-05-06 04:09 | 40.09206 | -120.01624 | 31875 ft | 405 kts | 355° |
| 2026-05-06 04:10 | 40.14780 | -120.02723 | 31868 ft | 405 kts | 355° |
| 2026-05-06 04:10 | 40.20333 | -120.03819 | 31869 ft | 403 kts | 355° |
| 2026-05-06 04:11 | 40.25876 | -120.04917 | 31870 ft | 402 kts | 355° |
| 2026-05-06 04:11 | 40.31411 | -120.06013 | 31876 ft | 403 kts | 355° |
| 2026-05-06 04:12 | 40.36963 | -120.07112 | 31875 ft | 404 kts | 355° |
| 2026-05-06 04:12 | 40.42520 | -120.08220 | 31879 ft | 404 kts | 354° |
| 2026-05-06 04:13 | 40.48069 | -120.09330 | 31876 ft | 402 kts | 355° |
| 2026-05-06 04:13 | 40.53588 | -120.10432 | 31884 ft | 401 kts | 354° |
| 2026-05-06 04:14 | 40.59104 | -120.11533 | 31879 ft | 401 kts | 354° |
| 2026-05-06 04:14 | 40.64641 | -120.12638 | 31899 ft | 404 kts | 354° |
| 2026-05-06 04:15 | 40.69268 | -120.13565 | 31905 ft | 405 kts | 354° |
| 2026-05-06 04:15 | 40.74824 | -120.14683 | 31913 ft | 403 kts | 354° |
| 2026-05-06 04:16 | 40.80387 | -120.15804 | 31912 ft | 402 kts | 354° |
| 2026-05-06 04:16 | 40.85923 | -120.16921 | 31924 ft | 403 kts | 354° |
| 2026-05-06 04:17 | 40.91468 | -120.18042 | 31921 ft | 403 kts | 354° |
| 2026-05-06 04:17 | 40.96964 | -120.19152 | 31932 ft | 401 kts | 354° |
| 2026-05-06 04:18 | 41.02457 | -120.20264 | 31937 ft | 399 kts | 354° |
| 2026-05-06 04:18 | 41.07946 | -120.21375 | 31937 ft | 401 kts | 354° |
| 2026-05-06 04:19 | 41.13478 | -120.22498 | 31944 ft | 403 kts | 354° |
| 2026-05-06 04:19 | 41.19020 | -120.23626 | 31944 ft | 402 kts | 354° |
| 2026-05-06 04:20 | 41.24539 | -120.24749 | 31941 ft | 402 kts | 354° |
| 2026-05-06 04:20 | 41.30075 | -120.25884 | 31969 ft | 403 kts | 354° |
| 2026-05-06 04:21 | 41.35616 | -120.27021 | 31985 ft | 403 kts | 354° |
| 2026-05-06 04:21 | 41.41178 | -120.28160 | 31982 ft | 400 kts | 354° |
| 2026-05-06 04:22 | 41.46639 | -120.29278 | 31994 ft | 401 kts | 354° |
| 2026-05-06 04:23 | 41.54967 | -120.30989 | 31948 ft | 403 kts | 354° |
| 2026-05-06 04:23 | 41.60509 | -120.32127 | 31948 ft | 403 kts | 354° |
| 2026-05-06 04:24 | 41.66022 | -120.33267 | 31950 ft | 404 kts | 354° |
| 2026-05-06 04:24 | 41.71570 | -120.34421 | 31951 ft | 403 kts | 354° |
| 2026-05-06 04:25 | 41.77117 | -120.35576 | 31951 ft | 402 kts | 354° |
| 2026-05-06 04:25 | 41.82631 | -120.36717 | 31966 ft | 401 kts | 354° |
| 2026-05-06 04:26 | 41.88166 | -120.37864 | 31990 ft | 403 kts | 354° |
| 2026-05-06 04:26 | 41.93702 | -120.39017 | 32009 ft | 403 kts | 354° |
| 2026-05-06 04:27 | 41.99244 | -120.40169 | 32026 ft | 403 kts | 353° |
| 2026-05-06 04:27 | 42.04798 | -120.41331 | 32047 ft | 404 kts | 353° |
| 2026-05-06 04:28 | 42.10356 | -120.42501 | 32054 ft | 404 kts | 353° |
| 2026-05-06 04:28 | 42.15922 | -120.43670 | 32054 ft | 405 kts | 353° |
| 2026-05-06 04:29 | 42.21495 | -120.44840 | 31982 ft | 406 kts | 353° |
| 2026-05-06 04:29 | 42.27073 | -120.46014 | 31988 ft | 405 kts | 353° |
| 2026-05-06 04:30 | 42.32640 | -120.47188 | 31977 ft | 404 kts | 353° |
| 2026-05-06 04:30 | 42.38186 | -120.48355 | 31985 ft | 405 kts | 353° |
| 2026-05-06 04:31 | 42.43762 | -120.49536 | 31989 ft | 406 kts | 353° |
| 2026-05-06 04:31 | 42.49305 | -120.50793 | 31987 ft | 409 kts | 346° |
| 2026-05-06 04:32 | 42.54593 | -120.53731 | 31992 ft | 412 kts | 338° |
| 2026-05-06 04:32 | 42.59773 | -120.57020 | 31997 ft | 410 kts | 338° |
| 2026-05-06 04:33 | 42.64933 | -120.60248 | 31986 ft | 407 kts | 339° |
| 2026-05-06 04:33 | 42.70092 | -120.63386 | 31986 ft | 407 kts | 339° |
| 2026-05-06 04:34 | 42.75290 | -120.66515 | 31986 ft | 409 kts | 339° |
| 2026-05-06 04:34 | 42.80501 | -120.69665 | 31987 ft | 410 kts | 339° |
| 2026-05-06 04:35 | 42.85712 | -120.72833 | 31976 ft | 409 kts | 339° |
| 2026-05-06 04:35 | 42.90905 | -120.76001 | 31986 ft | 409 kts | 339° |
| 2026-05-06 04:36 | 42.96094 | -120.79190 | 31986 ft | 410 kts | 339° |
| 2026-05-06 04:36 | 43.01307 | -120.82391 | 31987 ft | 411 kts | 339° |
| 2026-05-06 04:37 | 43.06528 | -120.85589 | 31982 ft | 412 kts | 339° |
| 2026-05-06 04:37 | 43.11763 | -120.88806 | 31980 ft | 412 kts | 339° |
| 2026-05-06 04:38 | 43.16988 | -120.92028 | 31980 ft | 411 kts | 339° |
| 2026-05-06 04:38 | 43.22196 | -120.95242 | 31977 ft | 410 kts | 339° |
| 2026-05-06 04:39 | 43.27402 | -120.98460 | 31988 ft | 412 kts | 338° |
| 2026-05-06 04:39 | 43.32624 | -121.01717 | 31992 ft | 411 kts | 339° |
| 2026-05-06 04:40 | 43.37810 | -121.04948 | 31982 ft | 408 kts | 339° |
| 2026-05-06 04:40 | 43.42950 | -121.08139 | 31990 ft | 409 kts | 339° |
| 2026-05-06 04:41 | 43.48151 | -121.11376 | 31989 ft | 411 kts | 338° |
| 2026-05-06 04:41 | 43.53366 | -121.14634 | 31993 ft | 412 kts | 338° |
| 2026-05-06 04:42 | 43.58577 | -121.17893 | 31987 ft | 411 kts | 338° |
| 2026-05-06 04:42 | 43.63793 | -121.21161 | 31992 ft | 412 kts | 338° |
| 2026-05-06 04:43 | 43.69023 | -121.24435 | 31993 ft | 413 kts | 338° |
| 2026-05-06 04:43 | 43.74270 | -121.27725 | 31977 ft | 414 kts | 338° |
| 2026-05-06 04:44 | 43.79507 | -121.31022 | 31995 ft | 413 kts | 338° |
| 2026-05-06 04:44 | 43.84721 | -121.34368 | 32004 ft | 414 kts | 338° |
| 2026-05-06 04:45 | 43.89952 | -121.37722 | 32005 ft | 414 kts | 338° |
| 2026-05-06 04:45 | 43.95195 | -121.41051 | 32011 ft | 415 kts | 338° |
| 2026-05-06 04:46 | 44.00448 | -121.44381 | 32013 ft | 415 kts | 338° |
| 2026-05-06 04:46 | 44.05699 | -121.47722 | 32019 ft | 415 kts | 338° |
| 2026-05-06 04:47 | 44.10936 | -121.51061 | 32012 ft | 413 kts | 338° |
| 2026-05-06 04:47 | 44.16117 | -121.54370 | 32011 ft | 413 kts | 337° |
| 2026-05-06 04:48 | 44.21341 | -121.57726 | 32001 ft | 414 kts | 337° |
| 2026-05-06 04:48 | 44.26569 | -121.61096 | 32000 ft | 414 kts | 337° |
| 2026-05-06 04:49 | 44.31814 | -121.64472 | 32010 ft | 415 kts | 337° |
| 2026-05-06 04:49 | 44.37060 | -121.67850 | 32010 ft | 415 kts | 337° |
| 2026-05-06 04:50 | 44.42309 | -121.71237 | 32010 ft | 415 kts | 337° |
| 2026-05-06 04:50 | 44.47548 | -121.74624 | 31992 ft | 414 kts | 337° |
| 2026-05-06 04:51 | 44.52776 | -121.78012 | 32001 ft | 414 kts | 337° |
| 2026-05-06 04:51 | 44.58018 | -121.81422 | 32014 ft | 416 kts | 337° |
| 2026-05-06 04:52 | 44.63267 | -121.84856 | 32025 ft | 417 kts | 337° |
| 2026-05-06 04:52 | 44.68519 | -121.88285 | 32037 ft | 415 kts | 337° |
| 2026-05-06 04:53 | 44.73756 | -121.91704 | 32039 ft | 414 kts | 337° |
| 2026-05-06 04:53 | 44.78977 | -121.95121 | 32051 ft | 415 kts | 337° |
| 2026-05-06 04:54 | 44.84203 | -121.98548 | 32040 ft | 414 kts | 337° |
| 2026-05-06 04:54 | 44.89398 | -122.01960 | 32045 ft | 414 kts | 337° |
| 2026-05-06 04:55 | 44.94632 | -122.05412 | 32054 ft | 415 kts | 336° |
| 2026-05-06 04:55 | 44.99818 | -122.08852 | 32060 ft | 415 kts | 336° |
| 2026-05-06 04:56 | 45.05044 | -122.12316 | 32058 ft | 414 kts | 336° |
| 2026-05-06 04:56 | 45.10261 | -122.15773 | 32067 ft | 413 kts | 336° |
| 2026-05-06 04:57 | 45.15451 | -122.19220 | 32070 ft | 412 kts | 336° |
| 2026-05-06 04:57 | 45.20644 | -122.22670 | 32058 ft | 413 kts | 336° |
| 2026-05-06 04:58 | 45.25853 | -122.26136 | 32063 ft | 413 kts | 336° |
| 2026-05-06 04:58 | 45.31063 | -122.29619 | 32064 ft | 414 kts | 336° |
| 2026-05-06 04:59 | 45.36275 | -122.33128 | 32062 ft | 415 kts | 336° |
| 2026-05-06 04:59 | 45.41491 | -122.36639 | 32060 ft | 415 kts | 336° |
| 2026-05-06 05:00 | 45.46713 | -122.40151 | 32061 ft | 414 kts | 336° |
| 2026-05-06 05:00 | 45.51923 | -122.43659 | 32062 ft | 413 kts | 336° |
| 2026-05-06 05:01 | 45.57115 | -122.47163 | 32065 ft | 413 kts | 336° |
| 2026-05-06 05:01 | 45.62323 | -122.50680 | 32089 ft | 415 kts | 336° |
| 2026-05-06 05:02 | 45.67561 | -122.54229 | 32090 ft | 417 kts | 336° |
| 2026-05-06 05:02 | 45.72764 | -122.57768 | 32031 ft | 417 kts | 336° |
| 2026-05-06 05:02 | 45.75457 | -122.59370 | 31556 ft | 423 kts | 346° |
| 2026-05-06 05:03 | 45.78320 | -122.60259 | 31232 ft | 419 kts | 351° |
| 2026-05-06 05:03 | 45.81181 | -122.60921 | 31028 ft | 415 kts | 351° |
| 2026-05-06 05:03 | 45.83104 | -122.61342 | 30948 ft | 414 kts | 351° |
| 2026-05-06 05:03 | 45.86874 | -122.62172 | 30843 ft | 413 kts | 351° |
| 2026-05-06 05:04 | 45.88796 | -122.62606 | 30790 ft | 414 kts | 351° |
| 2026-05-06 05:04 | 45.94470 | -122.63954 | 30639 ft | 419 kts | 351° |
| 2026-05-06 05:05 | 46.00262 | -122.65401 | 30499 ft | 421 kts | 350° |
| 2026-05-06 05:05 | 46.06009 | -122.66850 | 30355 ft | 422 kts | 350° |
| 2026-05-06 05:06 | 46.11791 | -122.68252 | 30223 ft | 420 kts | 352° |
| 2026-05-06 05:06 | 46.17566 | -122.69392 | 30038 ft | 420 kts | 353° |
| 2026-05-06 05:06 | 46.20477 | -122.69940 | 29753 ft | 423 kts | 353° |
| 2026-05-06 05:07 | 46.23428 | -122.70500 | 29363 ft | 421 kts | 352° |
| 2026-05-06 05:07 | 46.26282 | -122.71050 | 28927 ft | 417 kts | 352° |
| 2026-05-06 05:07 | 46.29139 | -122.71611 | 28470 ft | 412 kts | 352° |
| 2026-05-06 05:07 | 46.31967 | -122.72162 | 27996 ft | 408 kts | 354° |
| 2026-05-06 05:08 | 46.34791 | -122.72459 | 27424 ft | 407 kts | 358° |
| 2026-05-06 05:08 | 46.37608 | -122.72560 | 26849 ft | 403 kts | 359° |
| 2026-05-06 05:08 | 46.40403 | -122.72604 | 26244 ft | 400 kts | 359° |
| 2026-05-06 05:08 | 46.43163 | -122.72643 | 25637 ft | 396 kts | 359° |
| 2026-05-06 05:09 | 46.45912 | -122.72694 | 25039 ft | 393 kts | 359° |
| 2026-05-06 05:09 | 46.48638 | -122.72762 | 24470 ft | 390 kts | 358° |
| 2026-05-06 05:09 | 46.51343 | -122.72848 | 23874 ft | 388 kts | 358° |
| 2026-05-06 05:09 | 46.54034 | -122.72946 | 23234 ft | 385 kts | 358° |
| 2026-05-06 05:10 | 46.56692 | -122.73049 | 22596 ft | 381 kts | 358° |
| 2026-05-06 05:10 | 46.59322 | -122.73153 | 22027 ft | 376 kts | 358° |
| 2026-05-06 05:10 | 46.61920 | -122.73255 | 21493 ft | 370 kts | 358° |
| 2026-05-06 05:10 | 46.64476 | -122.73354 | 20973 ft | 365 kts | 358° |
| 2026-05-06 05:11 | 46.66991 | -122.73449 | 20462 ft | 360 kts | 358° |
| 2026-05-06 05:11 | 46.69480 | -122.73542 | 19988 ft | 354 kts | 358° |
| 2026-05-06 05:11 | 46.71888 | -122.73628 | 19881 ft | 338 kts | 358° |
| 2026-05-06 05:11 | 46.74177 | -122.73712 | 19800 ft | 322 kts | 358° |
| 2026-05-06 05:12 | 46.76398 | -122.73795 | 19733 ft | 321 kts | 358° |
| 2026-05-06 05:12 | 46.78657 | -122.73392 | 19677 ft | 338 kts | 18° |
| 2026-05-06 05:12 | 46.80779 | -122.71682 | 19310 ft | 362 kts | 36° |
| 2026-05-06 05:12 | 46.82711 | -122.69353 | 18689 ft | 365 kts | 39° |
| 2026-05-06 05:13 | 46.84656 | -122.66885 | 17960 ft | 366 kts | 38° |
| 2026-05-06 05:13 | 46.86604 | -122.64478 | 17162 ft | 367 kts | 38° |
| 2026-05-06 05:13 | 46.88570 | -122.62100 | 16436 ft | 366 kts | 37° |
| 2026-05-06 05:13 | 46.90521 | -122.59791 | 15726 ft | 365 kts | 37° |
| 2026-05-06 05:14 | 46.92501 | -122.57494 | 15094 ft | 358 kts | 36° |
| 2026-05-06 05:14 | 46.94548 | -122.55659 | 14786 ft | 335 kts | 20° |
| 2026-05-06 05:14 | 46.96720 | -122.54589 | 14409 ft | 326 kts | 15° |
| 2026-05-06 05:14 | 46.98875 | -122.53692 | 14034 ft | 319 kts | 14° |
| 2026-05-06 05:15 | 47.00989 | -122.52831 | 13640 ft | 312 kts | 14° |
| 2026-05-06 05:15 | 47.03061 | -122.51997 | 13229 ft | 307 kts | 14° |
| 2026-05-06 05:15 | 47.05102 | -122.51173 | 12848 ft | 301 kts | 14° |
| 2026-05-06 05:15 | 47.07097 | -122.50354 | 12479 ft | 295 kts | 14° |
| 2026-05-06 05:16 | 47.09076 | -122.49687 | 12089 ft | 290 kts | 8° |
| 2026-05-06 05:16 | 47.11059 | -122.49296 | 11742 ft | 285 kts | 6° |
| 2026-05-06 05:16 | 47.13021 | -122.48980 | 11380 ft | 282 kts | 5° |
| 2026-05-06 05:16 | 47.14971 | -122.48674 | 11002 ft | 283 kts | 5° |
| 2026-05-06 05:17 | 47.16922 | -122.48367 | 10666 ft | 280 kts | 5° |
| 2026-05-06 05:17 | 47.18822 | -122.48058 | 10477 ft | 270 kts | 5° |
| 2026-05-06 05:17 | 47.20665 | -122.47769 | 10312 ft | 261 kts | 5° |
| 2026-05-06 05:17 | 47.22472 | -122.47503 | 10253 ft | 264 kts | 5° |
| 2026-05-06 05:18 | 47.24323 | -122.47236 | 10187 ft | 268 kts | 5° |
| 2026-05-06 05:18 | 47.26190 | -122.46962 | 10112 ft | 268 kts | 5° |
| 2026-05-06 05:18 | 47.28023 | -122.46687 | 10042 ft | 262 kts | 5° |
| 2026-05-06 05:18 | 47.29828 | -122.46414 | 9967 ft | 260 kts | 5° |
| 2026-05-06 05:19 | 47.31631 | -122.46140 | 9895 ft | 261 kts | 5° |
| 2026-05-06 05:19 | 47.33438 | -122.45864 | 9818 ft | 261 kts | 5° |
| 2026-05-06 05:19 | 47.35249 | -122.45595 | 9738 ft | 262 kts | 3° |
| 2026-05-06 05:19 | 47.37082 | -122.45481 | 9425 ft | 267 kts | 360° |
| 2026-05-06 05:20 | 47.38937 | -122.45469 | 9013 ft | 266 kts | 359° |
| 2026-05-06 05:20 | 47.40787 | -122.45486 | 8593 ft | 266 kts | 359° |
| 2026-05-06 05:20 | 47.42622 | -122.45505 | 8276 ft | 260 kts | 359° |
| 2026-05-06 05:20 | 47.44402 | -122.45528 | 7948 ft | 253 kts | 358° |
| 2026-05-06 05:21 | 47.46171 | -122.45551 | 7536 ft | 255 kts | 358° |
| 2026-05-06 05:21 | 47.47946 | -122.45569 | 7101 ft | 256 kts | 358° |
| 2026-05-06 05:21 | 47.49741 | -122.45589 | 6640 ft | 259 kts | 358° |
| 2026-05-06 05:21 | 47.51536 | -122.45620 | 6119 ft | 256 kts | 358° |
| 2026-05-06 05:22 | 47.53301 | -122.45661 | 5625 ft | 252 kts | 358° |
| 2026-05-06 05:22 | 47.55016 | -122.45700 | 5144 ft | 248 kts | 358° |
| 2026-05-06 05:22 | 47.56732 | -122.45740 | 4642 ft | 245 kts | 358° |
| 2026-05-06 05:22 | 47.58428 | -122.45782 | 4139 ft | 243 kts | 358° |
| 2026-05-06 05:23 | 47.60118 | -122.45825 | 3643 ft | 242 kts | 358° |
| 2026-05-06 05:23 | 47.61802 | -122.45873 | 3147 ft | 243 kts | 358° |
| 2026-05-06 05:23 | 47.64801 | -122.44176 | 2220 ft | 235 kts | 65° |
| 2026-05-06 05:24 | 47.65193 | -122.41942 | 1987 ft | 226 kts | 85° |
| 2026-05-06 05:24 | 47.65359 | -122.39633 | 1707 ft | 225 kts | 87° |
| 2026-05-06 05:24 | 47.65516 | -122.37328 | 1439 ft | 223 kts | 87° |
| 2026-05-06 05:24 | 47.65590 | -122.35093 | 1426 ft | 212 kts | 102° |
| 2026-05-06 05:25 | 47.64902 | -122.33317 | 1433 ft | 202 kts | 147° |
| 2026-05-06 05:25 | 47.63684 | -122.32256 | 1447 ft | 204 kts | 155° |
| 2026-05-06 05:25 | 47.62380 | -122.31787 | 1413 ft | 186 kts | 180° |
| 2026-05-06 05:25 | 47.61133 | -122.31717 | 1387 ft | 172 kts | 178° |
| 2026-05-06 05:26 | 47.59980 | -122.31651 | 1386 ft | 159 kts | 180° |
| 2026-05-06 05:26 | 47.58895 | -122.31654 | 1414 ft | 153 kts | 182° |
| 2026-05-06 05:26 | 47.57827 | -122.31668 | 1416 ft | 152 kts | 182° |
| 2026-05-06 05:26 | 47.56786 | -122.31690 | 1474 ft | 150 kts | 182° |
| 2026-05-06 05:27 | 47.55729 | -122.31708 | 1439 ft | 153 kts | 181° |
| 2026-05-06 05:27 | 47.54666 | -122.31720 | 1424 ft | 152 kts | 181° |
| 2026-05-06 05:27 | 47.53603 | -122.31727 | 1403 ft | 153 kts | 181° |
| 2026-05-06 05:27 | 47.52523 | -122.31734 | 1404 ft | 157 kts | 181° |
| 2026-05-06 05:28 | 47.51428 | -122.31745 | 1402 ft | 157 kts | 181° |
| 2026-05-06 05:28 | 47.50319 | -122.31755 | 1263 ft | 162 kts | 181° |
| 2026-05-06 05:28 | 47.49227 | -122.31763 | 1000 ft | 152 kts | 181° |
| 2026-05-06 05:28 | 47.48190 | -122.31769 | 780 ft | 148 kts | 181° |
| 2026-05-06 05:29 | 47.47164 | -122.31774 | 618 ft | 147 kts | 182° |
| 2026-05-06 05:29 | 47.46152 | -122.31791 | 425 ft | 145 kts | 181° |
| 2026-05-06 05:29 | 47.45253 | -122.31800 | 393 ft | 97 kts | 180° |
| 2026-05-06 05:29 | 47.44795 | -122.31802 | 389 ft | 39 kts | 179° |
| 2026-05-06 05:30 | 47.44541 | -122.31702 | 379 ft | 34 kts | 154° |
| 2026-05-06 05:30 | 47.44436 | -122.31621 | 375 ft | 17 kts | 152° |
| 2026-05-06 05:30 | 47.44365 | -122.31562 | 376 ft | 10 kts | 150° |
| 2026-05-06 05:30 | 47.44310 | -122.31509 | 377 ft | 9 kts | 141° |
| 2026-05-06 05:31 | 47.44270 | -122.31451 | 378 ft | 7 kts | 132° |
| 2026-05-06 05:31 | 47.44248 | -122.31396 | 379 ft | 6 kts | 116° |
| 2026-05-06 05:31 | 47.44232 | -122.31331 | 381 ft | 7 kts | 106° |
| 2026-05-06 05:31 | 47.44219 | -122.31266 | 382 ft | 6 kts | 106° |
| 2026-05-06 05:32 | 47.44193 | -122.31175 | 384 ft | 13 kts | 120° |
| 2026-05-06 05:32 | 47.44109 | -122.31056 | 383 ft | 19 kts | 148° |
| 2026-05-06 05:32 | 47.43997 | -122.30962 | 380 ft | 16 kts | 150° |
| 2026-05-06 05:32 | 47.43984 | -122.30951 | 380 ft | 0 kts | 150° |
| 2026-05-06 05:33 | 47.43983 | -122.30950 | 380 ft | 1 kts | 150° |
| 2026-05-06 05:33 | 47.43960 | -122.30930 | 380 ft | 5 kts | 148° |
| 2026-05-06 05:33 | 47.43921 | -122.30872 | 380 ft | 12 kts | 122° |
| 2026-05-06 05:34 | 47.43902 | -122.30728 | 380 ft | 18 kts | 85° |
| 2026-05-06 05:34 | 47.43986 | -122.30583 | 385 ft | 19 kts | 38° |
| 2026-05-06 05:34 | 47.44090 | -122.30541 | 387 ft | 9 kts | 1° |
| 2026-05-06 05:34 | 47.44120 | -122.30529 | 388 ft | 2 kts | 49° |
| 2026-05-06 05:35 | 47.44126 | -122.30501 | 388 ft | 5 kts | 82° |
| 2026-05-06 05:35 | 47.44126 | -122.30474 | 389 ft | 0 kts | 90° |
| 2026-05-06 05:35 | 47.44126 | -122.30465 | 389 ft | 1 kts | 89° |
| 2026-05-06 05:35 | 47.44126 | -122.30455 | 389 ft | 0 kts | 90° |
| 2026-05-06 05:36 | 47.44126 | -122.30454 | 389 ft | 0 kts | 90° |